sensor_id;sensor_type;location;lat;lon;timestamp;pressure;altitude;pressure_sealevel;temperature;humidity
45129;BME280;35512;56.312;101.728;2023-06-01T10:41:27;96366.31;;;21.81;22.58
45129;BME280;35512;56.312;101.728;2023-06-01T10:43:57;96365.75;;;21.73;22.64
45129;BME280;35512;56.312;101.728;2023-06-01T10:46:42;96382.09;;;21.64;22.59
45129;BME280;35512;56.312;101.728;2023-06-01T10:49:15;96389.38;;;21.57;22.70
45129;BME280;35512;56.312;101.728;2023-06-01T10:51:44;96370.72;;;21.49;22.75
45129;BME280;35512;56.312;101.728;2023-06-01T10:54:27;96363.22;;;21.36;22.86
45129;BME280;35512;56.312;101.728;2023-06-01T10:57:26;96357.50;;;21.31;22.98
45129;BME280;35512;56.312;101.728;2023-06-01T11:00:27;96363.56;;;21.38;22.89
45129;BME280;35512;56.312;101.728;2023-06-01T11:02:59;96364.91;;;21.47;22.58
45129;BME280;35512;56.312;101.728;2023-06-01T11:05:49;96365.06;;;21.56;22.78
45129;BME280;35512;56.312;101.728;2023-06-01T11:13:23;96386.38;;;21.22;24.77
45129;BME280;35512;56.312;101.728;2023-06-01T11:19:05;96401.38;;;20.72;25.88
45129;BME280;35512;56.312;101.728;2023-06-01T11:21:39;96405.41;;;20.34;26.42
45129;BME280;35512;56.312;101.728;2023-06-01T11:24:15;96406.38;;;20.07;26.95
45129;BME280;35512;56.312;101.728;2023-06-01T11:26:47;96418.53;;;20.06;27.07
45129;BME280;35512;56.312;101.728;2023-06-01T11:29:21;96424.72;;;20.10;27.24
45129;BME280;35512;56.312;101.728;2023-06-01T11:31:58;96416.44;;;20.14;27.48
45129;BME280;35512;56.312;101.728;2023-06-01T11:34:40;96423.47;;;20.15;27.45
45129;BME280;35512;56.312;101.728;2023-06-01T11:37:15;96420.28;;;20.17;27.59
45129;BME280;35512;56.312;101.728;2023-06-01T11:39:45;96434.13;;;20.09;27.92
45129;BME280;35512;56.312;101.728;2023-06-01T11:42:19;96429.94;;;20.05;27.83
45129;BME280;35512;56.312;101.728;2023-06-01T11:44:58;96429.88;;;20.08;28.25
45129;BME280;35512;56.312;101.728;2023-06-01T11:47:36;96437.03;;;20.02;28.13
45129;BME280;35512;56.312;101.728;2023-06-01T11:50:07;96426.66;;;19.93;28.43
45129;BME280;35512;56.312;101.728;2023-06-01T11:52:48;96430.66;;;19.89;28.51
45129;BME280;35512;56.312;101.728;2023-06-01T11:55:17;96426.09;;;19.82;28.97
45129;BME280;35512;56.312;101.728;2023-06-01T11:57:47;96434.50;;;19.71;29.24
45129;BME280;35512;56.312;101.728;2023-06-01T12:00:16;96421.53;;;19.55;29.64
45129;BME280;35512;56.312;101.728;2023-06-01T12:02:47;96437.06;;;19.42;29.64
45129;BME280;35512;56.312;101.728;2023-06-01T12:05:19;96433.03;;;19.27;30.04
45129;BME280;35512;56.312;101.728;2023-06-01T12:07:50;96428.81;;;19.22;30.27
45129;BME280;35512;56.312;101.728;2023-06-01T12:10:22;96431.97;;;19.20;30.48
45129;BME280;35512;56.312;101.728;2023-06-01T12:12:52;96439.47;;;19.16;30.47
45129;BME280;35512;56.312;101.728;2023-06-01T12:15:21;96441.09;;;19.14;30.51
45129;BME280;35512;56.312;101.728;2023-06-01T12:17:54;96437.28;;;19.07;30.96
45129;BME280;35512;56.312;101.728;2023-06-01T12:20:31;96441.81;;;18.94;31.12
45129;BME280;35512;56.312;101.728;2023-06-01T12:25:55;96443.78;;;18.66;31.46
45129;BME280;35512;56.312;101.728;2023-06-01T12:28:26;96449.34;;;18.63;31.74
45129;BME280;35512;56.312;101.728;2023-06-01T12:31:13;96453.38;;;18.54;31.72
45129;BME280;35512;56.312;101.728;2023-06-01T12:33:44;96440.63;;;18.44;31.83
45129;BME280;35512;56.312;101.728;2023-06-01T12:36:32;96466.66;;;18.52;31.99
45129;BME280;35512;56.312;101.728;2023-06-01T12:39:04;96470.19;;;18.53;32.04
45129;BME280;35512;56.312;101.728;2023-06-01T12:41:33;96465.13;;;18.51;32.04
45129;BME280;35512;56.312;101.728;2023-06-01T12:44:02;96465.19;;;18.48;32.14
45129;BME280;35512;56.312;101.728;2023-06-01T12:46:31;96469.94;;;18.44;32.23
45129;BME280;35512;56.312;101.728;2023-06-01T12:49:17;96465.28;;;18.40;32.57
45129;BME280;35512;56.312;101.728;2023-06-01T12:51:47;96475.91;;;18.35;32.43
45129;BME280;35512;56.312;101.728;2023-06-01T12:54:16;96477.97;;;18.27;32.47
45129;BME280;35512;56.312;101.728;2023-06-01T12:56:49;96467.22;;;18.13;32.33
45129;BME280;35512;56.312;101.728;2023-06-01T12:59:19;96474.28;;;18.10;32.70
45129;BME280;35512;56.312;101.728;2023-06-01T13:01:48;96475.53;;;18.05;32.63
45129;BME280;35512;56.312;101.728;2023-06-01T13:04:18;96478.72;;;18.00;32.95
45129;BME280;35512;56.312;101.728;2023-06-01T13:06:47;96480.38;;;17.90;33.12
45129;BME280;35512;56.312;101.728;2023-06-01T13:09:16;96483.69;;;17.74;33.26
45129;BME280;35512;56.312;101.728;2023-06-01T13:11:46;96488.53;;;17.56;33.56
45129;BME280;35512;56.312;101.728;2023-06-01T13:14:15;96484.00;;;17.46;33.49
45129;BME280;35512;56.312;101.728;2023-06-01T13:16:45;96493.75;;;17.47;33.63
45129;BME280;35512;56.312;101.728;2023-06-01T13:19:14;96492.53;;;17.48;33.93
45129;BME280;35512;56.312;101.728;2023-06-01T13:21:43;96494.94;;;17.42;33.89
45129;BME280;35512;56.312;101.728;2023-06-01T13:24:12;96493.44;;;17.37;33.86
45129;BME280;35512;56.312;101.728;2023-06-01T13:26:41;96489.63;;;17.28;34.14
45129;BME280;35512;56.312;101.728;2023-06-01T13:29:10;96489.78;;;17.10;34.54
45129;BME280;35512;56.312;101.728;2023-06-01T13:31:39;96488.00;;;16.88;34.51
45129;BME280;35512;56.312;101.728;2023-06-01T13:34:08;96492.88;;;16.63;34.55
45129;BME280;35512;56.312;101.728;2023-06-01T13:36:37;96493.78;;;16.42;34.86
45129;BME280;35512;56.312;101.728;2023-06-01T13:39:06;96492.72;;;16.25;35.02
45129;BME280;35512;56.312;101.728;2023-06-01T13:41:35;96495.13;;;16.08;35.15
45129;BME280;35512;56.312;101.728;2023-06-01T13:44:04;96496.34;;;15.96;35.45
45129;BME280;35512;56.312;101.728;2023-06-01T13:46:33;96490.94;;;15.85;35.54
45129;BME280;35512;56.312;101.728;2023-06-01T13:49:02;96497.97;;;15.72;35.70
45129;BME280;35512;56.312;101.728;2023-06-01T13:51:31;96504.22;;;15.65;35.66
45129;BME280;35512;56.312;101.728;2023-06-01T13:54:02;96505.00;;;15.55;36.16
45129;BME280;35512;56.312;101.728;2023-06-01T13:56:31;96515.53;;;15.49;36.19
45129;BME280;35512;56.312;101.728;2023-06-01T13:59:00;96521.00;;;15.42;36.30
45129;BME280;35512;56.312;101.728;2023-06-01T14:01:29;96517.09;;;15.32;36.58
45129;BME280;35512;56.312;101.728;2023-06-01T14:03:59;96516.34;;;15.21;36.53
45129;BME280;35512;56.312;101.728;2023-06-01T14:06:29;96512.09;;;15.13;36.50
45129;BME280;35512;56.312;101.728;2023-06-01T14:08:58;96515.19;;;15.08;36.66
45129;BME280;35512;56.312;101.728;2023-06-01T14:11:26;96513.66;;;15.03;36.93
45129;BME280;35512;56.312;101.728;2023-06-01T14:13:58;96510.91;;;14.99;37.14
45129;BME280;35512;56.312;101.728;2023-06-01T14:16:27;96515.22;;;14.93;36.87
45129;BME280;35512;56.312;101.728;2023-06-01T14:18:56;96514.44;;;14.89;36.91
45129;BME280;35512;56.312;101.728;2023-06-01T14:21:25;96519.47;;;14.83;36.98
45129;BME280;35512;56.312;101.728;2023-06-01T14:23:54;96514.78;;;14.80;37.12
45129;BME280;35512;56.312;101.728;2023-06-01T14:26:24;96510.53;;;14.79;37.41
45129;BME280;35512;56.312;101.728;2023-06-01T14:28:54;96514.03;;;14.83;37.20
45129;BME280;35512;56.312;101.728;2023-06-01T14:31:23;96512.88;;;14.81;37.13
45129;BME280;35512;56.312;101.728;2023-06-01T14:33:52;96519.84;;;14.82;37.43
45129;BME280;35512;56.312;101.728;2023-06-01T14:36:21;96523.75;;;14.81;37.54
45129;BME280;35512;56.312;101.728;2023-06-01T14:39:09;96514.03;;;14.76;37.58
45129;BME280;35512;56.312;101.728;2023-06-01T14:41:38;96512.06;;;14.69;37.65
45129;BME280;35512;56.312;101.728;2023-06-01T14:44:12;96512.84;;;14.66;37.49
45129;BME280;35512;56.312;101.728;2023-06-01T14:46:41;96516.72;;;14.62;37.63
45129;BME280;35512;56.312;101.728;2023-06-01T14:49:10;96506.59;;;14.59;37.67
45129;BME280;35512;56.312;101.728;2023-06-01T14:51:39;96516.31;;;14.52;37.82
45129;BME280;35512;56.312;101.728;2023-06-01T14:54:08;96516.66;;;14.47;37.86
45129;BME280;35512;56.312;101.728;2023-06-01T14:56:37;96520.94;;;14.45;37.96
45129;BME280;35512;56.312;101.728;2023-06-01T14:59:06;96522.09;;;14.40;38.12
45129;BME280;35512;56.312;101.728;2023-06-01T15:01:36;96520.16;;;14.37;38.32
45129;BME280;35512;56.312;101.728;2023-06-01T15:04:05;96525.97;;;14.39;38.25
45129;BME280;35512;56.312;101.728;2023-06-01T15:06:34;96523.25;;;14.35;38.17
45129;BME280;35512;56.312;101.728;2023-06-01T15:09:05;96521.69;;;14.31;38.62
45129;BME280;35512;56.312;101.728;2023-06-01T15:11:35;96519.34;;;14.29;38.64
45129;BME280;35512;56.312;101.728;2023-06-01T15:14:04;96519.75;;;14.28;38.47
45129;BME280;35512;56.312;101.728;2023-06-01T15:16:33;96525.16;;;14.24;38.66
45129;BME280;35512;56.312;101.728;2023-06-01T15:19:05;96524.38;;;14.20;38.59
45129;BME280;35512;56.312;101.728;2023-06-01T15:21:34;96528.25;;;14.15;38.94
45129;BME280;35512;56.312;101.728;2023-06-01T15:24:04;96530.16;;;14.15;38.93
45129;BME280;35512;56.312;101.728;2023-06-01T15:26:33;96539.50;;;14.17;39.19
45129;BME280;35512;56.312;101.728;2023-06-01T15:29:02;96541.81;;;14.19;39.01
45129;BME280;35512;56.312;101.728;2023-06-01T15:31:34;96543.75;;;14.18;38.91
45129;BME280;35512;56.312;101.728;2023-06-01T15:34:03;96541.81;;;14.19;39.07
45129;BME280;35512;56.312;101.728;2023-06-01T15:36:33;96543.38;;;14.20;39.25
45129;BME280;35512;56.312;101.728;2023-06-01T15:39:02;96545.34;;;14.27;39.16
45129;BME280;35512;56.312;101.728;2023-06-01T15:41:32;96554.66;;;14.26;39.11
45129;BME280;35512;56.312;101.728;2023-06-01T15:44:01;96547.28;;;14.26;39.62
45129;BME280;35512;56.312;101.728;2023-06-01T15:46:30;96540.28;;;14.22;39.40
45129;BME280;35512;56.312;101.728;2023-06-01T15:48:59;96530.22;;;14.22;39.89
45129;BME280;35512;56.312;101.728;2023-06-01T15:51:29;96526.31;;;14.23;39.65
45129;BME280;35512;56.312;101.728;2023-06-01T15:53:58;96544.94;;;14.21;39.90
45129;BME280;35512;56.312;101.728;2023-06-01T15:56:30;96543.34;;;14.16;39.78
45129;BME280;35512;56.312;101.728;2023-06-01T15:59:06;96544.91;;;14.10;39.93
45129;BME280;35512;56.312;101.728;2023-06-01T16:01:36;96550.31;;;14.07;40.32
45129;BME280;35512;56.312;101.728;2023-06-01T16:04:05;96551.84;;;14.00;40.23
45129;BME280;35512;56.312;101.728;2023-06-01T16:06:34;96555.31;;;13.97;40.17
45129;BME280;35512;56.312;101.728;2023-06-01T16:09:04;96551.41;;;13.91;40.56
45129;BME280;35512;56.312;101.728;2023-06-01T16:11:33;96555.25;;;13.83;40.72
45129;BME280;35512;56.312;101.728;2023-06-01T16:14:01;96551.34;;;13.77;40.81
45129;BME280;35512;56.312;101.728;2023-06-01T16:16:32;96551.31;;;13.69;41.06
45129;BME280;35512;56.312;101.728;2023-06-01T16:19:01;96554.00;;;13.62;40.80
45129;BME280;35512;56.312;101.728;2023-06-01T16:21:30;96548.50;;;13.51;41.41
45129;BME280;35512;56.312;101.728;2023-06-01T16:23:59;96552.69;;;13.45;41.75
45129;BME280;35512;56.312;101.728;2023-06-01T16:26:28;96551.09;;;13.37;41.73
45129;BME280;35512;56.312;101.728;2023-06-01T16:28:58;96552.56;;;13.27;41.72
45129;BME280;35512;56.312;101.728;2023-06-01T16:31:27;96545.94;;;13.21;42.00
45129;BME280;35512;56.312;101.728;2023-06-01T16:33:56;96549.00;;;13.16;42.00
45129;BME280;35512;56.312;101.728;2023-06-01T16:36:25;96545.47;;;13.12;42.25
45129;BME280;35512;56.312;101.728;2023-06-01T16:38:54;96547.38;;;13.08;42.63
45129;BME280;35512;56.312;101.728;2023-06-01T16:41:23;96550.81;;;13.05;42.61
45129;BME280;35512;56.312;101.728;2023-06-01T16:43:52;96546.16;;;12.98;42.78
45129;BME280;35512;56.312;101.728;2023-06-01T16:46:21;96541.84;;;12.93;42.72
45129;BME280;35512;56.312;101.728;2023-06-01T16:48:50;96538.69;;;12.88;43.02
45129;BME280;35512;56.312;101.728;2023-06-01T16:51:19;96541.78;;;12.86;43.18
45129;BME280;35512;56.312;101.728;2023-06-01T16:53:50;96540.19;;;12.81;43.54
45129;BME280;35512;56.312;101.728;2023-06-01T16:56:19;96541.75;;;12.82;43.47
45129;BME280;35512;56.312;101.728;2023-06-01T16:58:48;96544.44;;;12.79;43.66
45129;BME280;35512;56.312;101.728;2023-06-01T17:01:18;96538.59;;;12.77;43.88
45129;BME280;35512;56.312;101.728;2023-06-01T17:03:47;96538.22;;;12.78;43.80
45129;BME280;35512;56.312;101.728;2023-06-01T17:06:18;96542.88;;;12.78;44.05
45129;BME280;35512;56.312;101.728;2023-06-01T17:08:49;96539.38;;;12.77;44.16
45129;BME280;35512;56.312;101.728;2023-06-01T17:11:30;96542.88;;;12.78;44.42
45129;BME280;35512;56.312;101.728;2023-06-01T17:14:03;96539.38;;;12.77;44.39
45129;BME280;35512;56.312;101.728;2023-06-01T17:16:32;96537.84;;;12.76;44.52
45129;BME280;35512;56.312;101.728;2023-06-01T17:19:01;96537.47;;;12.78;44.96
45129;BME280;35512;56.312;101.728;2023-06-01T17:21:30;96537.84;;;12.80;45.34
45129;BME280;35512;56.312;101.728;2023-06-01T17:24:00;96537.84;;;12.80;45.46
45129;BME280;35512;56.312;101.728;2023-06-01T17:26:28;96539.03;;;12.82;45.72
45129;BME280;35512;56.312;101.728;2023-06-01T17:28:57;96539.41;;;12.81;45.80
45129;BME280;35512;56.312;101.728;2023-06-01T17:31:26;96540.19;;;12.81;45.89
45129;BME280;35512;56.312;101.728;2023-06-01T17:33:56;96535.13;;;12.76;45.74
45129;BME280;35512;56.312;101.728;2023-06-01T17:36:25;96538.22;;;12.78;46.21
45129;BME280;35512;56.312;101.728;2023-06-01T17:38:54;96534.38;;;12.79;46.26
45129;BME280;35512;56.312;101.728;2023-06-01T17:41:23;96527.03;;;12.83;46.45
45129;BME280;35512;56.312;101.728;2023-06-01T17:43:53;96536.75;;;12.88;46.73
45129;BME280;35512;56.312;101.728;2023-06-01T17:46:22;96528.66;;;12.92;46.76
45129;BME280;35512;56.312;101.728;2023-06-01T17:48:51;96534.94;;;12.99;47.38
45129;BME280;35512;56.312;101.728;2023-06-01T17:51:20;96540.41;;;13.07;47.89
45129;BME280;35512;56.312;101.728;2023-06-01T17:53:49;96536.91;;;13.06;47.79
45129;BME280;35512;56.312;101.728;2023-06-01T17:56:18;96533.84;;;13.08;47.70
45129;BME280;35512;56.312;101.728;2023-06-01T17:58:46;96536.91;;;13.06;47.36
45129;BME280;35512;56.312;101.728;2023-06-01T18:01:15;96536.88;;;13.02;47.57
45129;BME280;35512;56.312;101.728;2023-06-01T18:03:45;96533.78;;;13.04;47.79
45129;BME280;35512;56.312;101.728;2023-06-01T18:06:14;96539.19;;;13.00;47.67
45129;BME280;35512;56.312;101.728;2023-06-01T18:08:45;96533.41;;;13.02;47.54
45129;BME280;35512;56.312;101.728;2023-06-01T18:11:14;96534.56;;;13.05;47.84
45129;BME280;35512;56.312;101.728;2023-06-01T18:13:43;96537.28;;;13.05;47.75
45129;BME280;35512;56.312;101.728;2023-06-01T18:16:12;96529.56;;;13.07;47.83
45129;BME280;35512;56.312;101.728;2023-06-01T18:18:41;96534.22;;;13.06;47.72
45129;BME280;35512;56.312;101.728;2023-06-01T18:21:10;96531.03;;;13.00;47.88
45129;BME280;35512;56.312;101.728;2023-06-01T18:23:39;96531.84;;;13.01;47.69
45129;BME280;35512;56.312;101.728;2023-06-01T18:26:10;96532.19;;;12.96;47.70
45129;BME280;35512;56.312;101.728;2023-06-01T18:28:39;96537.22;;;12.97;47.72
45129;BME280;35512;56.312;101.728;2023-06-01T18:31:08;96532.19;;;12.96;48.14
45129;BME280;35512;56.312;101.728;2023-06-01T18:33:38;96532.50;;;12.87;48.12
45129;BME280;35512;56.312;101.728;2023-06-01T18:36:07;96531.31;;;12.84;48.00
45129;BME280;35512;56.312;101.728;2023-06-01T18:38:37;96535.94;;;12.80;48.37
45129;BME280;35512;56.312;101.728;2023-06-01T18:41:07;96537.41;;;12.74;48.44
45129;BME280;35512;56.312;101.728;2023-06-01T18:43:35;96535.47;;;12.71;48.37
45129;BME280;35512;56.312;101.728;2023-06-01T18:46:04;96540.84;;;12.67;48.42
45129;BME280;35512;56.312;101.728;2023-06-01T18:48:34;96538.88;;;12.64;48.30
45129;BME280;35512;56.312;101.728;2023-06-01T18:51:03;96534.59;;;12.60;48.55
45129;BME280;35512;56.312;101.728;2023-06-01T18:53:33;96535.31;;;12.57;48.25
45129;BME280;35512;56.312;101.728;2023-06-01T18:56:02;96540.34;;;12.55;48.21
45129;BME280;35512;56.312;101.728;2023-06-01T18:58:31;96538.72;;;12.50;48.38
45129;BME280;35512;56.312;101.728;2023-06-01T19:01:01;96535.63;;;12.48;48.50
45129;BME280;35512;56.312;101.728;2023-06-01T19:03:30;96546.47;;;12.48;48.59
45129;BME280;35512;56.312;101.728;2023-06-01T19:05:59;96538.66;;;12.43;48.42
45129;BME280;35512;56.312;101.728;2023-06-01T19:08:30;96548.69;;;12.39;48.53
45129;BME280;35512;56.312;101.728;2023-06-01T19:11:01;96549.00;;;12.33;48.38
45129;BME280;35512;56.312;101.728;2023-06-01T19:13:39;96552.47;;;12.30;48.99
45129;BME280;35512;56.312;101.728;2023-06-01T19:16:20;96553.94;;;12.24;48.61
45129;BME280;35512;56.312;101.728;2023-06-01T19:18:55;96546.91;;;12.20;49.03
45129;BME280;35512;56.312;101.728;2023-06-01T19:21:25;96549.94;;;12.11;48.83
45129;BME280;35512;56.312;101.728;2023-06-01T19:24:04;96549.06;;;12.03;48.97
45129;BME280;35512;56.312;101.728;2023-06-01T19:26:34;96559.06;;;11.99;49.15
45129;BME280;35512;56.312;101.728;2023-06-01T19:29:10;96551.91;;;11.87;49.22
45129;BME280;35512;56.312;101.728;2023-06-01T19:31:42;96551.41;;;11.78;49.45
45129;BME280;35512;56.312;101.728;2023-06-01T19:34:13;96550.13;;;11.68;49.69
45129;BME280;35512;56.312;101.728;2023-06-01T19:41:43;96552.03;;;11.37;49.88
45129;BME280;35512;56.312;101.728;2023-06-01T19:44:15;96550.78;;;11.31;50.28
45129;BME280;35512;56.312;101.728;2023-06-01T19:46:45;96547.53;;;11.22;50.43
45129;BME280;35512;56.312;101.728;2023-06-01T19:49:15;96549.84;;;11.20;50.48
45129;BME280;35512;56.312;101.728;2023-06-01T19:51:46;96549.78;;;11.16;50.44
45129;BME280;35512;56.312;101.728;2023-06-01T19:54:23;96548.53;;;11.10;50.60
45129;BME280;35512;56.312;101.728;2023-06-01T19:56:57;96557.78;;;11.09;50.44
45129;BME280;35512;56.312;101.728;2023-06-01T19:59:27;96554.59;;;11.03;50.30
45129;BME280;35512;56.312;101.728;2023-06-01T20:01:59;96556.09;;;11.01;50.59
45129;BME280;35512;56.312;101.728;2023-06-01T20:04:32;96549.44;;;10.94;50.85
45129;BME280;35512;56.312;101.728;2023-06-01T20:07:02;96553.69;;;10.95;50.70
45129;BME280;35512;56.312;101.728;2023-06-01T20:09:31;96552.03;;;10.87;50.93
45129;BME280;35512;56.312;101.728;2023-06-01T20:12:00;96556.94;;;10.81;50.96
45129;BME280;35512;56.312;101.728;2023-06-01T20:14:32;96558.00;;;10.77;51.12
45129;BME280;35512;56.312;101.728;2023-06-01T20:17:02;96551.41;;;10.74;51.19
45129;BME280;35512;56.312;101.728;2023-06-01T20:19:34;96549.38;;;10.68;51.18
45129;BME280;35512;56.312;101.728;2023-06-01T20:22:03;96553.94;;;10.63;51.51
45129;BME280;35512;56.312;101.728;2023-06-01T20:24:35;96550.03;;;10.61;51.57
45129;BME280;35512;56.312;101.728;2023-06-01T20:27:04;96546.50;;;10.57;51.56
45129;BME280;35512;56.312;101.728;2023-06-01T20:29:34;96540.66;;;10.55;51.65
45129;BME280;35512;56.312;101.728;2023-06-01T20:32:06;96554.16;;;10.55;51.64
45129;BME280;35512;56.312;101.728;2023-06-01T20:34:35;96553.31;;;10.51;51.76
45129;BME280;35512;56.312;101.728;2023-06-01T20:37:06;96560.66;;;10.50;52.01
45129;BME280;35512;56.312;101.728;2023-06-01T20:39:35;96547.16;;;10.50;51.90
45129;BME280;35512;56.312;101.728;2023-06-01T20:42:05;96566.59;;;10.59;51.73
45129;BME280;35512;56.312;101.728;2023-06-01T20:44:34;96559.41;;;10.67;51.63
45129;BME280;35512;56.312;101.728;2023-06-01T20:47:04;96552.00;;;10.64;51.63
45129;BME280;35512;56.312;101.728;2023-06-01T20:49:33;96554.78;;;10.68;51.66
45129;BME280;35512;56.312;101.728;2023-06-01T20:52:02;96551.00;;;10.72;51.54
45129;BME280;35512;56.312;101.728;2023-06-01T20:54:31;96551.13;;;10.79;51.54
45129;BME280;35512;56.312;101.728;2023-06-01T20:57:00;96552.56;;;10.73;51.79
45129;BME280;35512;56.312;101.728;2023-06-01T20:59:31;96555.19;;;10.70;51.71
45129;BME280;35512;56.312;101.728;2023-06-01T21:02:03;96544.31;;;10.66;51.88
45129;BME280;35512;56.312;101.728;2023-06-01T21:04:35;96549.31;;;10.64;52.14
45129;BME280;35512;56.312;101.728;2023-06-01T21:07:06;96548.94;;;10.65;52.08
45129;BME280;35512;56.312;101.728;2023-06-01T21:09:36;96542.34;;;10.63;52.22
45129;BME280;35512;56.312;101.728;2023-06-01T21:12:05;96542.78;;;10.65;52.21
45129;BME280;35512;56.312;101.728;2023-06-01T21:14:35;96552.50;;;10.70;52.19
45129;BME280;35512;56.312;101.728;2023-06-01T21:17:04;96563.22;;;10.66;52.24
45129;BME280;35512;56.312;101.728;2023-06-01T21:19:33;96578.25;;;10.63;52.63
45129;BME280;35512;56.312;101.728;2023-06-01T21:22:02;96571.31;;;10.66;52.45
45129;BME280;35512;56.312;101.728;2023-06-01T21:24:31;96572.91;;;10.67;52.40
45129;BME280;35512;56.312;101.728;2023-06-01T21:27:00;96582.56;;;10.68;52.52
45129;BME280;35512;56.312;101.728;2023-06-01T21:29:29;96569.06;;;10.68;52.52
45129;BME280;35512;56.312;101.728;2023-06-01T21:31:58;96568.63;;;10.66;52.64
45129;BME280;35512;56.312;101.728;2023-06-01T21:34:29;96567.84;;;10.65;52.66
45129;BME280;35512;56.312;101.728;2023-06-01T21:36:58;96560.19;;;10.68;52.91
45129;BME280;35512;56.312;101.728;2023-06-01T21:39:27;96560.22;;;10.71;52.78
45129;BME280;35512;56.312;101.728;2023-06-01T21:41:56;96555.63;;;10.72;52.81
45129;BME280;35512;56.312;101.728;2023-06-01T21:44:25;96554.97;;;10.78;52.89
45129;BME280;35512;56.312;101.728;2023-06-01T21:46:54;96555.81;;;10.82;52.87
45129;BME280;35512;56.312;101.728;2023-06-01T21:49:23;96553.53;;;10.85;53.01
45129;BME280;35512;56.312;101.728;2023-06-01T21:51:52;96557.50;;;10.91;53.03
45129;BME280;35512;56.312;101.728;2023-06-01T21:54:21;96554.47;;;10.96;53.05
45129;BME280;35512;56.312;101.728;2023-06-01T21:56:51;96550.34;;;11.02;53.06
45129;BME280;35512;56.312;101.728;2023-06-01T21:59:20;96547.34;;;11.07;52.97
45129;BME280;35512;56.312;101.728;2023-06-01T22:01:49;96557.88;;;11.16;53.03
45129;BME280;35512;56.312;101.728;2023-06-01T22:04:21;96556.00;;;11.20;52.87
45129;BME280;35512;56.312;101.728;2023-06-01T22:06:51;96555.34;;;11.27;52.72
45129;BME280;35512;56.312;101.728;2023-06-01T22:09:20;96552.38;;;11.36;52.96
45129;BME280;35512;56.312;101.728;2023-06-01T22:11:49;96564.91;;;11.47;52.80
45129;BME280;35512;56.312;101.728;2023-06-01T22:14:18;96550.72;;;11.54;52.55
45129;BME280;35512;56.312;101.728;2023-06-01T22:16:47;96553.13;;;11.59;52.75
45129;BME280;35512;56.312;101.728;2023-06-01T22:19:16;96553.19;;;11.66;52.63
45129;BME280;35512;56.312;101.728;2023-06-01T22:21:45;96545.91;;;11.71;52.67
45129;BME280;35512;56.312;101.728;2023-06-01T22:24:14;96540.19;;;11.76;52.63
45129;BME280;35512;56.312;101.728;2023-06-01T22:26:43;96548.38;;;11.83;52.64
45129;BME280;35512;56.312;101.728;2023-06-01T22:29:12;96553.16;;;11.93;52.42
45129;BME280;35512;56.312;101.728;2023-06-01T22:31:41;96538.56;;;11.98;52.42
45129;BME280;35512;56.312;101.728;2023-06-01T22:34:10;96542.53;;;12.08;52.28
45129;BME280;35512;56.312;101.728;2023-06-01T22:36:39;96546.56;;;12.21;52.00
45129;BME280;35512;56.312;101.728;2023-06-01T22:39:08;96545.91;;;12.31;52.12
45129;BME280;35512;56.312;101.728;2023-06-01T22:41:37;96549.09;;;12.41;51.80
45129;BME280;35512;56.312;101.728;2023-06-01T22:44:06;96539.47;;;12.47;52.01
45129;BME280;35512;56.312;101.728;2023-06-01T22:46:35;96558.50;;;12.54;51.55
45129;BME280;35512;56.312;101.728;2023-06-01T22:49:06;96564.00;;;12.61;51.83
45129;BME280;35512;56.312;101.728;2023-06-01T22:51:38;96554.75;;;12.66;51.80
45129;BME280;35512;56.312;101.728;2023-06-01T22:54:09;96564.13;;;12.76;51.88
45129;BME280;35512;56.312;101.728;2023-06-01T22:56:38;96569.25;;;12.84;51.50
45129;BME280;35512;56.312;101.728;2023-06-01T22:59:07;96567.41;;;12.96;51.43
45129;BME280;35512;56.312;101.728;2023-06-01T23:01:37;96569.44;;;13.06;51.48
45129;BME280;35512;56.312;101.728;2023-06-01T23:04:06;96571.41;;;13.13;51.03
45129;BME280;35512;56.312;101.728;2023-06-01T23:06:35;96564.09;;;13.17;51.46
45129;BME280;35512;56.312;101.728;2023-06-01T23:09:04;96570.41;;;13.28;51.11
45129;BME280;35512;56.312;101.728;2023-06-01T23:11:33;96564.66;;;13.37;51.25
45129;BME280;35512;56.312;101.728;2023-06-01T23:14:03;96571.34;;;13.50;51.03
45129;BME280;35512;56.312;101.728;2023-06-01T23:16:40;96572.59;;;13.64;50.58
45129;BME280;35512;56.312;101.728;2023-06-01T23:19:14;96571.50;;;13.76;50.43
45129;BME280;35512;56.312;101.728;2023-06-01T23:21:47;96572.72;;;13.85;50.31
45129;BME280;35512;56.312;101.728;2023-06-01T23:24:23;96573.94;;;13.95;50.61
45129;BME280;35512;56.312;101.728;2023-06-01T23:26:52;96573.97;;;14.06;50.34
45129;BME280;35512;56.312;101.728;2023-06-01T23:29:21;96571.31;;;14.17;50.18
45129;BME280;35512;56.312;101.728;2023-06-01T23:31:50;96577.56;;;14.28;49.94
45129;BME280;35512;56.312;101.728;2023-06-01T23:34:19;96573.69;;;14.36;49.69
45129;BME280;35512;56.312;101.728;2023-06-01T23:36:48;96572.56;;;14.48;49.36
45129;BME280;35512;56.312;101.728;2023-06-01T23:39:22;96574.53;;;14.62;49.28
45129;BME280;35512;56.312;101.728;2023-06-01T23:41:51;96585.88;;;14.75;49.50
45129;BME280;35512;56.312;101.728;2023-06-01T23:44:20;96573.47;;;14.92;48.93
45129;BME280;35512;56.312;101.728;2023-06-01T23:46:49;96585.50;;;15.09;49.17
45129;BME280;35512;56.312;101.728;2023-06-01T23:49:18;96586.69;;;15.23;48.80
45129;BME280;35512;56.312;101.728;2023-06-01T23:51:47;96585.91;;;15.36;48.87
45129;BME280;35512;56.312;101.728;2023-06-01T23:54:16;96583.56;;;15.57;48.82